Thunder radar more information blitzortung!


avis per Pluja more information rain snow radar


Visita la nostra xarxa de llocs de meteo:

Template documentation
and downloads

And another site



Rain From: 16-11-2018 00:00 Until: 09:59 warning for: Rain Level: Yellow info button

Pagina Historial Weather Underground text

Diari Resum Desembre 18, 2017 Unitats:  Mètric    Imperial   Tant
« Previous Dia
SegĂźent Dia »
Diari Setmana Mensual Anual Personalitzada
  Maxima: Minima: Media:
Temperatura: -17.8 °C -17.1 °C -14.7 °C
Punt de rosada: -17.8 °C -22 °C -18.8 °C
Humitat: Humidity % 41 % 58 %
Wind Speed: 0 km/h 0 km/h 7.1 km/h
RĂ fegues de vent: 0 km/h - -
Vent:- - SSE
Pression baro: 0 hPa 34533.8 hPa -
Precipitacions: 0 mm    
Historical Graphs
 
 
Dades de taula per Desembre 18, 2017
Temps Temperatura Punt de rosada Pression baro Vent Wind Speed RĂ fegues de vent Humitat Rainfall Rate (Hourly)
-17.8 °C -17.8 °C 0 hPa Calm     Humidity % 0 mm
00:00 -15.1 °C -21.7 °C 34808.1 hPa East 5.1 km/h 7.7 km/h 42 % 0 mm
00:02 -15.2 °C -21.9 °C 34808.1 hPa West 6 km/h 6 km/h 41 % 0 mm
00:05 -15.2 °C -22 °C 34808.1 hPa NE 3.1 km/h   41 % 0 mm
00:09 -15.2 °C -21.9 °C 34808.1 hPa North 8 km/h 8 km/h 41 % 0 mm
00:10 -16.1 °C -21.2 °C 34808.1 hPa NNE 5.1 km/h 15.6 km/h 51 % 0 mm
00:20 -16.1 °C -21.2 °C 34808.1 hPa NE 7.7 km/h 7.7 km/h 51 % 0 mm
00:40 -16.3 °C -21.2 °C 34875.8 hPa NNE 5.1 km/h 7.7 km/h 52 % 0 mm
00:50 -16.3 °C -21.3 °C 34841.9 hPa NE 5.1 km/h 7.7 km/h 52 % 0 mm
01:00 -16.4 °C -21.3 °C 34841.9 hPa NE 2.6 km/h 10.3 km/h 52 % 0 mm
01:20 -16.7 °C -21.6 °C 34841.9 hPa NNW 7.7 km/h 7.7 km/h 52 % 0 mm
01:30 -16.7 °C -21.6 °C 34841.9 hPa West 5.1 km/h 7.7 km/h 52 % 0 mm
01:50 -17 °C -21.8 °C 34808.1 hPa SW 5.1 km/h 7.7 km/h 53 % 0 mm
02:00 -16.9 °C -21.6 °C 34808.1 hPa WSW 2.6 km/h 7.7 km/h 53 % 0 mm
02:10 -16.7 °C -21.3 °C 34808.1 hPa WSW 5.1 km/h 7.7 km/h 54 % 0 mm
02:20 -16.6 °C -21.1 °C 34841.9 hPa WSW 5.1 km/h 10.3 km/h 55 % 0 mm
02:30 -16.5 °C -20.9 °C 34841.9 hPa NE 2.6 km/h 7.7 km/h 56 % 0 mm
02:40 -16.3 °C -20.7 °C 34808.1 hPa Calm   5.1 km/h 56 % 0 mm
02:50 -16.2 °C -20.6 °C 34808.1 hPa WSW 2.6 km/h 7.7 km/h 56 % 0 mm
03:20 -15.9 °C -20.4 °C 34841.9 hPa NNW 7.7 km/h 7.7 km/h 56 % 0 mm
03:30 -15.9 °C -20.4 °C 34841.9 hPa NE 2.6 km/h 7.7 km/h 56 % 0 mm
03:40 -15.9 °C -20.4 °C 34841.9 hPa NE 2.6 km/h 7.7 km/h 56 % 0 mm
03:50 -15.8 °C -20.2 °C 34808.1 hPa ENE 2.6 km/h 5.1 km/h 56 % 0 mm
04:00 -15.7 °C -19.9 °C 34808.1 hPa SW 5.1 km/h 10.3 km/h 57 % 0 mm
04:10 -15.6 °C -20 °C 34841.9 hPa NNE 2.6 km/h 5.1 km/h 56 % 0 mm
04:20 -15.4 °C -19.8 °C 34841.9 hPa NNE 5.1 km/h 7.7 km/h 57 % 0 mm
10:26 -15.3 °C -19.8 °C 34841.9 hPa ENE 9 km/h 9.8 km/h 56 % 0 mm
10:27 -15.3 °C -19.8 °C 34841.9 hPa NNE 11.9 km/h 11.9 km/h 56 % 0 mm
10:34 -15.3 °C -19.8 °C 34841.9 hPa North 6.8 km/h 6.8 km/h 56 % 0 mm
10:35 -15.3 °C -19.8 °C 34841.9 hPa ESE 6 km/h 6 km/h 56 % 0 mm
10:40 -15.3 °C -19.8 °C 34841.9 hPa NNE 9 km/h 9 km/h 56 % 0 mm
10:43 -15.2 °C -19.7 °C 34808.1 hPa ENE 6 km/h 6 km/h 56 % 0 mm
10:45 -15.2 °C -19.7 °C 34808.1 hPa ENE 9 km/h 9 km/h 56 % 0 mm
10:50 -15.2 °C -19.6 °C 34808.1 hPa NE 3.1 km/h   56 % 0 mm
10:51 -15.2 °C -19.6 °C 34808.1 hPa NE 4.2 km/h 4.2 km/h 56 % 0 mm
10:56 -15.2 °C -19.6 °C 34808.1 hPa NE 6.3 km/h 6.3 km/h 56 % 0 mm
10:58 -15.2 °C -19.6 °C 34808.1 hPa NNE 9 km/h 9 km/h 56 % 0 mm
11:01 -15.2 °C -19.6 °C 34808.1 hPa NNE 6 km/h 6 km/h 56 % 0 mm
11:02 -15.1 °C -19.6 °C 34808.1 hPa ENE 6 km/h 6 km/h 56 % 0 mm
11:04 -15.1 °C -19.6 °C 34808.1 hPa NE 11.9 km/h 11.9 km/h 56 % 0 mm
11:09 -15.1 °C -19.6 °C 34808.1 hPa NNE 6.8 km/h 6.8 km/h 56 % 0 mm
11:10 -15.1 °C -19.6 °C 34808.1 hPa NNE 9 km/h 9 km/h 56 % 0 mm
11:11 -15.1 °C -19.6 °C 34808.1 hPa NNE 9 km/h 9 km/h 56 % 0 mm
11:15 -15.1 °C -19.6 °C 34808.1 hPa North 9 km/h 9 km/h 56 % 0 mm
11:20 -15 °C -19.3 °C 34808.1 hPa WNW 3.1 km/h 3.1 km/h 57 % 0 mm
11:25 -14.9 °C -19.4 °C 34808.1 hPa ENE 6 km/h 6 km/h 56 % 0 mm
11:26 -14.9 °C -19.4 °C 34774.2 hPa WSW 6 km/h 6 km/h 56 % 0 mm
11:32 -14.9 °C -19.4 °C 34774.2 hPa NNE 9 km/h 9 km/h 56 % 0 mm
11:36 -14.9 °C -19.4 °C 34774.2 hPa ENE 6 km/h 6 km/h 56 % 0 mm
11:38 -14.9 °C -19.4 °C 34774.2 hPa NE 9 km/h 9 km/h 56 % 0 mm
11:41 -14.9 °C -19.2 °C 34841.9 hPa WNW 4.2 km/h   57 % 0 mm
11:44 -14.8 °C -19.2 °C 34841.9 hPa North 3.1 km/h   57 % 0 mm
11:49 -14.8 °C -19.2 °C 34841.9 hPa WNW 3.1 km/h   57 % 0 mm
11:50 -14.8 °C -19.2 °C 34841.9 hPa NNE 6 km/h 6 km/h 57 % 0 mm
11:55 -14.8 °C -19.1 °C 34808.1 hPa NNE 3.1 km/h   57 % 0 mm
11:58 -14.7 °C -19.1 °C 34808.1 hPa ESE 3.1 km/h 3.1 km/h 57 % 0 mm
12:03 -14.7 °C -19.1 °C 34808.1 hPa NNE 3.1 km/h 3.1 km/h 57 % 0 mm
12:08 -14.6 °C -19 °C 34808.1 hPa WNW 11.1 km/h 11.1 km/h 57 % 0 mm
12:09 -14.6 °C -19 °C 34808.1 hPa North 11.9 km/h 11.9 km/h 57 % 0 mm
12:14 -14.6 °C -18.9 °C 34774.2 hPa NNW 9 km/h 9 km/h 57 % 0 mm
12:15 -14.6 °C -18.9 °C 34774.2 hPa NNW 9 km/h 9 km/h 57 % 0 mm
12:16 -14.5 °C -18.9 °C 34774.2 hPa WNW 6 km/h 6 km/h 57 % 0 mm
12:21 -14.4 °C -18.8 °C 34774.2 hPa WNW 9 km/h 9 km/h 57 % 0 mm
12:22 -14.4 °C -18.7 °C 34774.2 hPa West 6 km/h 6 km/h 58 % 0 mm
12:24 -14.3 °C -18.7 °C 34774.2 hPa NE 6 km/h 6 km/h 57 % 0 mm
12:28 -14.2 °C -18.4 °C 34740.4 hPa ENE 6.3 km/h 6.3 km/h 58 % 0 mm
12:29 -14.2 °C -18.4 °C 34740.4 hPa WSW 10.3 km/h 10.3 km/h 58 % 0 mm
12:34 -14.1 °C -18.4 °C 34740.4 hPa WSW 6 km/h 7.6 km/h 58 % 0 mm
12:36 -14.1 °C -18.3 °C 34740.4 hPa SSW 9 km/h 9 km/h 58 % 0 mm
12:38 -14.1 °C -18.3 °C 34740.4 hPa West 15 km/h 15 km/h 58 % 0 mm
12:43 -13.9 °C -18.2 °C 34740.4 hPa NW 11.9 km/h 11.9 km/h 58 % 0 mm
12:44 -13.9 °C -18.2 °C 34740.4 hPa NNW 11.9 km/h 11.9 km/h 58 % 0 mm
12:48 -13.9 °C -18.2 °C 34740.4 hPa WSW 11.9 km/h 11.9 km/h 58 % 0 mm
12:52 -13.9 °C -18.2 °C 34740.4 hPa WNW 11.9 km/h 11.9 km/h 58 % 0 mm
12:54 -13.9 °C -18.2 °C 34740.4 hPa WNW 11.9 km/h 11.9 km/h 58 % 0 mm
12:59 -13.9 °C -18.2 °C 34740.4 hPa WNW 3.1 km/h 6.3 km/h 58 % 0 mm
13:00 -13.9 °C -18.2 °C 34740.4 hPa WNW 3.1 km/h 6.3 km/h 58 % 0 mm
13:05 -13.8 °C -18.1 °C 34740.4 hPa WNW 3.1 km/h 6.3 km/h 58 % 0 mm
13:07 -13.8 °C -18.1 °C 34740.4 hPa WNW 11.9 km/h 12.2 km/h 58 % 0 mm
13:10 -13.8 °C -18.1 °C 34740.4 hPa SW 9 km/h 9 km/h 58 % 0 mm
13:13 -13.8 °C -18.1 °C 34740.4 hPa West 9 km/h 9 km/h 58 % 0 mm
13:18 -13.8 °C -18.1 °C 34740.4 hPa West 9 km/h 9 km/h 58 % 0 mm
13:19 -13.8 °C -18.1 °C 34740.4 hPa WSW 7.6 km/h 7.6 km/h 58 % 0 mm
13:24 -13.8 °C -18.1 °C 34740.4 hPa WNW 15 km/h 15 km/h 58 % 0 mm
13:26 -13.7 °C -18 °C 34740.4 hPa WNW 11.9 km/h 11.9 km/h 58 % 0 mm
13:31 -13.7 °C -17.9 °C 34740.4 hPa WSW 9.8 km/h 9.8 km/h 58 % 0 mm
13:34 -13.7 °C -17.9 °C 34740.4 hPa West 11.9 km/h 11.9 km/h 58 % 0 mm
13:36 -13.7 °C -17.9 °C 34740.4 hPa WSW 11.9 km/h 11.9 km/h 58 % 0 mm
13:42 -13.6 °C -17.9 °C 34669.3 hPa West 17.9 km/h 17.9 km/h 58 % 0 mm
13:45 -13.6 °C -17.9 °C 34669.3 hPa West 5.1 km/h 18.2 km/h 58 % 0 mm
13:47 -13.6 °C -17.9 °C 34669.3 hPa WSW 9 km/h 9 km/h 58 % 0 mm
13:52 -13.5 °C -17.8 °C 34669.3 hPa WSW 6 km/h 6 km/h 58 % 0 mm
13:57 -13.4 °C -17.7 °C 34669.3 hPa West 6.8 km/h   58 % 0 mm
13:58 -13.4 °C -17.7 °C 34669.3 hPa SSW 11.1 km/h 11.1 km/h 58 % 0 mm
14:02 -13.4 °C -17.8 °C 34669.3 hPa SW 9 km/h 9 km/h 57 % 0 mm
14:04 -13.3 °C -17.8 °C 34669.3 hPa NW 6 km/h 6 km/h 57 % 0 mm
14:09 -13.3 °C -17.8 °C 34669.3 hPa NW 6 km/h 6 km/h 57 % 0 mm
14:10 -13.3 °C -17.8 °C 34669.3 hPa West 6 km/h 6 km/h 57 % 0 mm
14:15 -13.3 °C -17.7 °C 34669.3 hPa South 6 km/h 6 km/h 57 % 0 mm
14:20 -13.2 °C -17.7 °C 34669.3 hPa SW 6.3 km/h 6.3 km/h 57 % 0 mm
14:24 -13.2 °C -17.7 °C 34669.3 hPa North 5.1 km/h 5.1 km/h 57 % 0 mm
14:26 -13.2 °C -17.7 °C 34669.3 hPa WNW 6 km/h   57 % 0 mm
14:31 -13.2 °C -17.8 °C 34669.3 hPa WNW 15 km/h 15 km/h 56 % 0 mm
14:32 -13.2 °C -17.8 °C 34669.3 hPa WNW 12.7 km/h 12.7 km/h 56 % 0 mm
14:33 -13.2 °C -17.8 °C 34669.3 hPa SW 9 km/h 9 km/h 56 % 0 mm
14:38 -13.2 °C -17.8 °C 34669.3 hPa NE 15 km/h 15 km/h 56 % 0 mm
14:39 -13.2 °C -17.8 °C 34669.3 hPa WSW 11.9 km/h 11.9 km/h 56 % 0 mm
14:43 -13.2 °C -17.8 °C 34669.3 hPa NNW 15 km/h 15 km/h 56 % 0 mm
14:45 -13.2 °C -17.8 °C 34669.3 hPa WNW 6 km/h 8 km/h 56 % 0 mm
14:50 -13.2 °C -17.9 °C 34669.3 hPa SW 9.8 km/h 9.8 km/h 55 % 0 mm
14:55 -13.2 °C -17.9 °C 34635.4 hPa WNW 9.3 km/h 9.3 km/h 55 % 0 mm
14:57 -13.2 °C -17.9 °C 34635.4 hPa WNW 9 km/h 9 km/h 55 % 0 mm
15:01 -13.2 °C -17.9 °C 34635.4 hPa NNE 12.2 km/h 12.2 km/h 55 % 0 mm
15:02 -13.2 °C -17.9 °C 34635.4 hPa ENE 15.3 km/h 15.3 km/h 55 % 0 mm
15:05 -13.4 °C -18.2 °C 34635.4 hPa NNE 11.9 km/h 11.9 km/h 55 % 0 mm
15:07 -13.6 °C -18.3 °C 34635.4 hPa NNE 12.7 km/h 12.7 km/h 55 % 0 mm
15:12 -13.7 °C -18.4 °C 34635.4 hPa NNW 6 km/h 6 km/h 55 % 0 mm
15:17 -13.8 °C -18.4 °C 34635.4 hPa North 9 km/h 9 km/h 55 % 0 mm
15:18 -13.8 °C -18.4 °C 34635.4 hPa ENE 9 km/h 9 km/h 55 % 0 mm
15:23 -13.8 °C -18.5 °C 34635.4 hPa NNE 9 km/h 9 km/h 55 % 0 mm
15:24 -13.8 °C -18.5 °C 34635.4 hPa SW 6 km/h 6 km/h 55 % 0 mm
15:29 -13.9 °C -18.7 °C 34635.4 hPa NNE 11.9 km/h 11.9 km/h 55 % 0 mm
15:31 -14 °C -18.7 °C 34635.4 hPa NE 15 km/h 15 km/h 55 % 0 mm
15:36 -13.9 °C -18.7 °C 34635.4 hPa WNW 4.2 km/h 4.2 km/h 55 % 0 mm
15:41 -13.9 °C -18.5 °C 34601.5 hPa WNW 6 km/h 6 km/h 56 % 0 mm
15:46 -13.9 °C -18.5 °C 34601.5 hPa WSW 6 km/h 6 km/h 56 % 0 mm
15:47 -13.9 °C -18.5 °C 34601.5 hPa WSW 6 km/h 6 km/h 56 % 0 mm
15:52 -14 °C -18.6 °C 34601.5 hPa ESE 11.9 km/h 11.9 km/h 56 % 0 mm
15:53 -14 °C -18.6 °C 34601.5 hPa SSW 9 km/h 9 km/h 56 % 0 mm
15:58 -14 °C -18.6 °C 34635.4 hPa ENE 7.6 km/h 7.6 km/h 56 % 0 mm
16:01 -14 °C -18.6 °C 34635.4 hPa NNE 15 km/h 15 km/h 56 % 0 mm
16:03 -14 °C -18.6 °C 34635.4 hPa NNE 9.3 km/h 9.3 km/h 56 % 0 mm
16:08 -14 °C -18.6 °C 34635.4 hPa NE 11.9 km/h 11.9 km/h 56 % 0 mm
16:10 -14 °C -18.6 °C 34635.4 hPa ENE 9 km/h 9 km/h 56 % 0 mm
16:15 -14.1 °C -18.6 °C 34601.5 hPa SE 9.8 km/h 9.8 km/h 56 % 0 mm
16:20 -14.1 °C -18.6 °C 34601.5 hPa NNE 6 km/h 6 km/h 56 % 0 mm
16:21 -14.1 °C -18.6 °C 34601.5 hPa ESE 6 km/h 6 km/h 56 % 0 mm
16:22 -14.1 °C -18.6 °C 34601.5 hPa ENE 9 km/h 9 km/h 56 % 0 mm
16:27 -14.1 °C -18.7 °C 34601.5 hPa NE 6 km/h 6 km/h 56 % 0 mm
16:29 -14.1 °C -18.7 °C 34601.5 hPa North 6 km/h 6.3 km/h 56 % 0 mm
16:32 -14.1 °C -18.7 °C 34601.5 hPa NNE 6.3 km/h 6.3 km/h 56 % 0 mm
16:36 -14.2 °C -18.6 °C 34601.5 hPa East 6 km/h 6.8 km/h 57 % 0 mm
16:38 -14.2 °C -18.6 °C 34601.5 hPa NNE 9 km/h 9 km/h 57 % 0 mm
16:42 -14.2 °C -18.6 °C 34601.5 hPa NNE 9.8 km/h 9.8 km/h 57 % 0 mm
16:43 -14.2 °C -18.6 °C 34601.5 hPa WNW 9 km/h 9 km/h 57 % 0 mm
16:48 -14.2 °C -18.6 °C 34601.5 hPa WNW 3.7 km/h 3.7 km/h 57 % 0 mm
16:49 -14.2 °C -18.6 °C 34601.5 hPa WNW 3.1 km/h 3.7 km/h 57 % 0 mm
16:54 -14.2 °C -18.6 °C 34601.5 hPa North 6 km/h 6 km/h 57 % 0 mm
16:59 -14.2 °C -18.6 °C 34601.5 hPa ENE 6.3 km/h 6.3 km/h 57 % 0 mm
17:00 -14.2 °C -18.6 °C 34601.5 hPa ENE 9 km/h 9 km/h 57 % 0 mm
17:03 -14.2 °C -18.6 °C 34601.5 hPa West 6.8 km/h 6.8 km/h 57 % 0 mm
17:06 -14.2 °C -18.6 °C 34601.5 hPa SSW 6.3 km/h 6.8 km/h 57 % 0 mm
17:11 -14.2 °C -18.6 °C 34567.7 hPa NE 6 km/h 6 km/h 57 % 0 mm
17:12 -14.2 °C -18.5 °C 34567.7 hPa SE 3.7 km/h 3.7 km/h 58 % 0 mm
17:16 -14.3 °C -18.6 °C 34567.7 hPa South 9 km/h 9 km/h 58 % 0 mm
17:19 -14.3 °C -18.6 °C 34567.7 hPa West 7.6 km/h 7.6 km/h 58 % 0 mm
17:24 -14.2 °C -18.4 °C 34567.7 hPa South 11.9 km/h 11.9 km/h 58 % 0 mm
17:28 -13.9 °C -18.2 °C 34567.7 hPa WSW 11.9 km/h 11.9 km/h 58 % 0 mm
17:30 -13.9 °C -18.2 °C 34567.7 hPa WSW 7.7 km/h 15.6 km/h 58 % 0 mm
17:34 -13.7 °C -17.8 °C 34567.7 hPa WSW 11.9 km/h 11.9 km/h 59 % 0 mm
17:39 -13.6 °C -17.7 °C 34567.7 hPa ENE 4.2 km/h 4.2 km/h 59 % 0 mm
17:41 -13.6 °C -17.7 °C 34533.8 hPa SE 6 km/h 6 km/h 59 % 0 mm
17:45 -13.5 °C -17.7 °C 34533.8 hPa ENE 2.6 km/h 5.1 km/h 59 % 0 mm
17:48 -13.4 °C -17.6 °C 34533.8 hPa ENE 6 km/h 6 km/h 59 % 0 mm
17:50 -13.4 °C -17.6 °C 34533.8 hPa ENE 6 km/h 6 km/h 59 % 0 mm
17:55 -13.4 °C -17.6 °C 34533.8 hPa WSW 3.1 km/h 3.1 km/h 59 % 0 mm
17:57 -13.4 °C -17.6 °C 34533.8 hPa South 7.6 km/h 7.6 km/h 59 % 0 mm
18:01 -13.4 °C -17.6 °C 34533.8 hPa NE 9.8 km/h 9.8 km/h 59 % 0 mm
18:03 -13.6 °C -17.9 °C 34533.8 hPa North 20.3 km/h 20.3 km/h 58 % 0 mm
18:08 -13.9 °C -18.2 °C 34533.8 hPa North 12.2 km/h 12.2 km/h 58 % 0 mm
18:13 -14.1 °C -18.3 °C 34567.7 hPa ENE 5.1 km/h 5.1 km/h 58 % 0 mm
18:18 -14.1 °C -18.4 °C 34567.7 hPa WNW 4.2 km/h   58 % 0 mm
18:19 -14.2 °C -18.6 °C 34567.7 hPa WNW 6 km/h 6 km/h 57 % 0 mm
18:20 -14.2 °C -18.6 °C 34567.7 hPa WNW 6 km/h 6 km/h 57 % 0 mm
18:25 -14.2 °C -18.6 °C 34567.7 hPa NNW 3.1 km/h 3.1 km/h 57 % 0 mm
18:30 -14.2 °C -18.6 °C 34567.7 hPa North 11.9 km/h 11.9 km/h 57 % 0 mm
18:31 -14.2 °C -18.5 °C 34567.7 hPa NNE 6 km/h 6 km/h 58 % 0 mm
18:35 -14.3 °C -18.6 °C 34567.7 hPa West 6 km/h 6 km/h 58 % 0 mm
18:39 -14.3 °C -18.7 °C 34567.7 hPa NNW 6 km/h 6 km/h 57 % 0 mm
18:40 -14.3 °C -18.7 °C 34533.8 hPa NNE 6 km/h 6 km/h 57 % 0 mm
18:45 -14.3 °C -18.6 °C 34533.8 hPa NW 6 km/h 6 km/h 58 % 0 mm
18:48 -14.3 °C -18.6 °C 34533.8 hPa ENE 9 km/h 9 km/h 58 % 0 mm
18:50 -14.2 °C -18.5 °C 34533.8 hPa ENE 9.8 km/h 9.8 km/h 58 % 0 mm
18:55 -14.2 °C -18.5 °C 34601.5 hPa ENE 3.1 km/h 3.7 km/h 58 % 0 mm
18:57 -14.2 °C -18.5 °C 34601.5 hPa South 9 km/h 9 km/h 58 % 0 mm
19:00 -14.2 °C -18.4 °C 34601.5 hPa NNE 15 km/h 15 km/h 58 % 0 mm
19:03 -14.2 °C -18.4 °C 34601.5 hPa NNW 3.1 km/h 3.1 km/h 58 % 0 mm
19:05 -14.2 °C -18.4 °C 34601.5 hPa SSE 10.3 km/h 10.3 km/h 58 % 0 mm
19:10 -14.2 °C -18.4 °C 34567.7 hPa SSW 7.6 km/h 7.6 km/h 58 % 0 mm
19:11 -14.2 °C -18.4 °C 34567.7 hPa WNW 9 km/h 9 km/h 58 % 0 mm
19:16 -14.2 °C -18.4 °C 34567.7 hPa NNE 9 km/h 9 km/h 58 % 0 mm
19:20 -16.2 °C -19.3 °C 34703.1 hPa WSW 2.6 km/h 5.1 km/h 66 % 0 mm
19:21 -14.2 °C -18.4 °C 34567.7 hPa NE 8.5 km/h 8.5 km/h 59 % 0 mm
19:23 -14.2 °C -18.4 °C 34567.7 hPa NE 9 km/h 9 km/h 59 % 0 mm
19:26 -14.2 °C -18.4 °C 34567.7 hPa ESE 6.8 km/h 6.8 km/h 59 % 0 mm
19:30 -14.2 °C -18.2 °C 34567.7 hPa WSW 6.3 km/h 6.3 km/h 60 % 0 mm
19:34 -14.3 °C -18.4 °C 34567.7 hPa West 6 km/h 6 km/h 59 % 0 mm
19:36 -14.3 °C -18.4 °C 34567.7 hPa West 6 km/h 6 km/h 59 % 0 mm
19:40 -14.3 °C -18.4 °C 34567.7 hPa West 3.7 km/h 3.7 km/h 59 % 0 mm
19:41 -14.3 °C -18.4 °C 34567.7 hPa West 3.1 km/h 3.1 km/h 59 % 0 mm
19:42 -14.3 °C -18.4 °C 34567.7 hPa West 3.1 km/h 3.1 km/h 59 % 0 mm
19:47 -14.3 °C -18.3 °C 34567.7 hPa East 6.8 km/h 6.8 km/h 60 % 0 mm
19:48 -14.3 °C -18.3 °C 34567.7 hPa ESE 6.8 km/h 6.8 km/h 60 % 0 mm
19:50 -16.2 °C -19.3 °C 34669.3 hPa WNW 2.6 km/h 5.1 km/h 66 % 0 mm
19:53 -14.4 °C -18.4 °C 34567.7 hPa ESE 6 km/h 6.3 km/h 60 % 0 mm
19:57 -14.4 °C -18.4 °C 34567.7 hPa SE 6 km/h 6 km/h 60 % 0 mm
20:00 -14.4 °C -18.4 °C 34567.7 hPa WNW 5.6 km/h 5.6 km/h 60 % 0 mm
20:02 -14.4 °C -18.5 °C 34567.7 hPa WNW 6 km/h 6 km/h 59 % 0 mm
20:07 -14.4 °C -18.4 °C 34567.7 hPa Calm     60 % 0 mm
20:09 -14.4 °C -18.4 °C 34567.7 hPa NE 6.3 km/h 6.3 km/h 60 % 0 mm
20:10 -16.3 °C -19.3 °C 34669.3 hPa West 2.6 km/h 5.1 km/h 67 % 0 mm
20:12 -14.5 °C -18.5 °C 34533.8 hPa North 9 km/h 9 km/h 60 % 0 mm
20:15 -14.6 °C -18.6 °C 34533.8 hPa NE 3.1 km/h 3.1 km/h 60 % 0 mm
20:20 -14.7 °C -18.5 °C 34533.8 hPa ESE 4.2 km/h 4.2 km/h 61 % 0 mm
20:21 -14.7 °C -18.6 °C 34533.8 hPa ESE 6 km/h 6 km/h 61 % 0 mm
20:23 -14.7 °C -18.6 °C 34533.8 hPa SW 3.1 km/h   61 % 0 mm
20:26 -14.8 °C -18.6 °C 34567.7 hPa WSW 6 km/h 6 km/h 61 % 0 mm
20:28 -14.8 °C -18.6 °C 34567.7 hPa ENE 3.1 km/h   61 % 0 mm
20:30 -16.3 °C -19.4 °C 34669.3 hPa NNW 5.1 km/h 5.1 km/h 67 % 0 mm
20:33 -14.7 °C -18.6 °C 34567.7 hPa WNW 3.1 km/h 3.1 km/h 61 % 0 mm
20:39 -14.7 °C -18.6 °C 34567.7 hPa NNE 15.3 km/h 15.3 km/h 61 % 0 mm
20:40 -16.4 °C -19.3 °C 34669.3 hPa NW 2.6 km/h 5.1 km/h 68 % 0 mm
20:44 -14.6 °C -18.4 °C 34567.7 hPa NNE 11.9 km/h 11.9 km/h 61 % 0 mm
20:45 -14.6 °C -18.4 °C 34567.7 hPa NE 11.9 km/h 11.9 km/h 61 % 0 mm
20:50 -14.6 °C -18.4 °C 34567.7 hPa NNE 15.3 km/h 15.3 km/h 61 % 0 mm
20:52 -14.5 °C -18.4 °C 34567.7 hPa NNE 20.9 km/h 20.9 km/h 61 % 0 mm
20:57 -14.6 °C -18.4 °C 34601.5 hPa NNE 18.3 km/h 18.3 km/h 61 % 0 mm
20:58 -14.6 °C -18.4 °C 34601.5 hPa NNE 18.3 km/h 18.3 km/h 61 % 0 mm
21:00 -16.6 °C -19.5 °C 34703.1 hPa Calm   2.6 km/h 68 % 0 mm
21:02 -14.6 °C -18.4 °C 34601.5 hPa NNE 15 km/h 15 km/h 61 % 0 mm
21:06 -14.6 °C -18.4 °C 34601.5 hPa NNE 15 km/h 15 km/h 61 % 0 mm
21:08 -14.6 °C -18.4 °C 34601.5 hPa WNW 15 km/h 15 km/h 61 % 0 mm
21:15 -14.6 °C -18.4 °C 34601.5 hPa WNW 9 km/h 9 km/h 61 % 0 mm
21:17 -14.7 °C -18.5 °C 34601.5 hPa ENE 4.2 km/h 4.2 km/h 61 % 0 mm
21:20 -14.7 °C -18.5 °C 34601.5 hPa NNE 9.8 km/h 9.8 km/h 61 % 0 mm
21:26 -14.7 °C -18.5 °C 34601.5 hPa East 11.9 km/h 11.9 km/h 61 % 0 mm
21:27 -14.7 °C -18.5 °C 34601.5 hPa North 9 km/h 9.8 km/h 61 % 0 mm
21:32 -14.7 °C -18.5 °C 34601.5 hPa West 9 km/h 9 km/h 61 % 0 mm
21:37 -14.7 °C -18.6 °C 34601.5 hPa West 3.1 km/h   61 % 0 mm
21:38 -14.7 °C -18.6 °C 34601.5 hPa West 3.1 km/h   61 % 0 mm
21:40 -16.8 °C -19.7 °C 34740.4 hPa West 2.6 km/h 7.7 km/h 68 % 0 mm
21:43 -14.8 °C -18.6 °C 34567.7 hPa Calm     62 % 0 mm
21:44 -14.8 °C -18.6 °C 34567.7 hPa Calm     62 % 0 mm
21:48 -14.8 °C -18.6 °C 34567.7 hPa NE 3.1 km/h 3.1 km/h 62 % 0 mm
21:49 -14.8 °C -18.6 °C 34567.7 hPa NNW 3.1 km/h   62 % 0 mm
21:50 -16.7 °C -19.7 °C 34740.4 hPa West 2.6 km/h 5.1 km/h 68 % 0 mm
21:53 -14.8 °C -18.6 °C 34567.7 hPa NW 4.2 km/h   62 % 0 mm
21:55 -14.8 °C -18.6 °C 34601.5 hPa NNE 3.1 km/h   62 % 0 mm
21:59 -14.9 °C -18.6 °C 34601.5 hPa WNW 3.1 km/h 3.7 km/h 62 % 0 mm
22:00 -16.8 °C -19.8 °C 34740.4 hPa NNW 5.1 km/h 10.3 km/h 68 % 0 mm
22:04 -14.9 °C -18.6 °C 34601.5 hPa ENE 3.1 km/h   62 % 0 mm
22:05 -14.9 °C -18.6 °C 34601.5 hPa NE 6 km/h 6 km/h 62 % 0 mm
22:10 -14.8 °C -18.4 °C 34601.5 hPa ESE 6 km/h   63 % 0 mm
22:12 -14.9 °C -18.5 °C 34601.5 hPa Calm     63 % 0 mm
22:16 -14.9 °C -18.5 °C 34601.5 hPa NE 6 km/h 6 km/h 63 % 0 mm
22:20 -16.9 °C -19.9 °C 34740.4 hPa Calm   5.1 km/h 68 % 0 mm
22:21 -14.9 °C -18.6 °C 34601.5 hPa ENE 9 km/h 9 km/h 63 % 0 mm
22:26 -15 °C -18.6 °C 34601.5 hPa NNE 7.6 km/h 7.6 km/h 63 % 0 mm
22:29 -15 °C -18.6 °C 34601.5 hPa ENE 8.5 km/h 8.5 km/h 63 % 0 mm
22:30 -17 °C -19.9 °C 34740.4 hPa West 2.6 km/h 5.1 km/h 68 % 0 mm
22:32 -15.1 °C -18.7 °C 34601.5 hPa NNE 9 km/h 9 km/h 63 % 0 mm
22:37 -15.1 °C -18.7 °C 34601.5 hPa East 6 km/h 6.3 km/h 63 % 0 mm
22:38 -15.1 °C -18.7 °C 34601.5 hPa NE 11.9 km/h 11.9 km/h 63 % 0 mm
22:40 -17.1 °C -19.9 °C 34740.4 hPa WSW 5.1 km/h 7.7 km/h 68 % 0 mm
22:43 -15.1 °C -18.7 °C 34635.4 hPa NE 15 km/h 15 km/h 63 % 0 mm
22:44 -15.1 °C -18.7 °C 34635.4 hPa NNE 20.9 km/h 20.9 km/h 63 % 0 mm
22:49 -15.2 °C -18.8 °C 34635.4 hPa ENE 9 km/h 9 km/h 63 % 0 mm
22:50 -16.9 °C -19.9 °C 34774.2 hPa WSW 5.1 km/h 7.7 km/h 68 % 0 mm
22:54 -15.3 °C -18.8 °C 34635.4 hPa NNE 6 km/h 6.3 km/h 63 % 0 mm
22:58 -15.3 °C -18.9 °C 34635.4 hPa NE 11.9 km/h 11.9 km/h 63 % 0 mm
22:59 -15.3 °C -18.9 °C 34635.4 hPa NNW 6 km/h 6 km/h 63 % 0 mm
23:00 -16.9 °C -19.7 °C 34774.2 hPa WSW 2.6 km/h 5.1 km/h 70 % 0 mm
23:04 -15.4 °C -18.9 °C 34635.4 hPa NNE 6 km/h 6 km/h 63 % 0 mm
23:05 -15.4 °C -18.9 °C 34635.4 hPa NNE 6 km/h 6 km/h 63 % 0 mm
23:07 -15.4 °C -18.9 °C 34635.4 hPa WNW 8 km/h 8 km/h 63 % 0 mm
23:10 -15.4 °C -19 °C 34635.4 hPa NNE 3.1 km/h 3.1 km/h 63 % 0 mm
23:13 -15.4 °C -19 °C 34635.4 hPa ENE 3.7 km/h 3.7 km/h 63 % 0 mm
23:18 -15.4 °C -19 °C 34635.4 hPa ENE 3.1 km/h 3.1 km/h 63 % 0 mm
23:19 -15.5 °C -19.1 °C 34635.4 hPa NW 3.7 km/h 3.7 km/h 63 % 0 mm
23:20 -17 °C -19.7 °C 34740.4 hPa Calm   2.6 km/h 70 % 0 mm
23:23 -15.5 °C -19.1 °C 34635.4 hPa WNW 3.1 km/h   63 % 0 mm
23:28 -15.6 °C -19.1 °C 34635.4 hPa Calm     63 % 0 mm
23:30 -17.1 °C -19.7 °C 34740.4 hPa NNE 2.6 km/h 2.6 km/h 71 % 0 mm
23:33 -15.6 °C -19.2 °C 34635.4 hPa West 6 km/h 6 km/h 63 % 0 mm
23:34 -15.6 °C -19.2 °C 34635.4 hPa West 3.1 km/h 3.1 km/h 63 % 0 mm
23:39 -15.7 °C -19.2 °C 34635.4 hPa West 3.1 km/h 3.1 km/h 63 % 0 mm
23:40 -17.1 °C -19.6 °C 34740.4 hPa ENE 2.6 km/h 2.6 km/h 72 % 0 mm
23:42 -15.7 °C -19.2 °C 34635.4 hPa West 3.1 km/h   63 % 0 mm
23:45 -15.7 °C -19.2 °C 34635.4 hPa West 3.1 km/h   64 % 0 mm
23:50 -15.7 °C -19.2 °C 34635.4 hPa Calm     64 % 0 mm
23:54 -15.8 °C -19.2 °C 34635.4 hPa Calm     64 % 0 mm
23:56 -15.8 °C -19.2 °C 34635.4 hPa Calm     64 % 0 mm
Meteo Sesrovires
Elogis d' Weather Underground - 2 mb

Guio original per  Jim McMurry - jmcmurry@mwt.net Adaptat per a la plantilla per  Wim van der Kuil - Leuven-Template.eu

Trobareu la nostra informacio del temps tambe a:

Weather Underground

AWEKAS